sensor_id;sensor_type;location;lat;lon;timestamp;pressure;altitude;pressure_sealevel;temperature;humidity
63500;BME280;49654;51.142;14.924;2023-02-22T00:00:11;99270.22;;;7.83;84.06
63500;BME280;49654;51.142;14.924;2023-02-22T00:02:46;99288.41;;;7.99;83.71
63500;BME280;49654;51.142;14.924;2023-02-22T00:05:13;99259.13;;;7.91;83.70
63500;BME280;49654;51.142;14.924;2023-02-22T00:07:42;99251.00;;;7.86;83.44
63500;BME280;49654;51.142;14.924;2023-02-22T00:10:09;99286.88;;;8.15;83.31
63500;BME280;49654;51.142;14.924;2023-02-22T00:12:39;99284.78;;;8.18;82.95
63500;BME280;49654;51.142;14.924;2023-02-22T00:15:07;99186.09;;;7.55;83.03
63500;BME280;49654;51.142;14.924;2023-02-22T00:17:35;99290.28;;;8.23;82.88
63500;BME280;49654;51.142;14.924;2023-02-22T00:20:03;99193.13;;;7.44;83.00
63500;BME280;49654;51.142;14.924;2023-02-22T00:22:32;99251.94;;;7.76;83.39
63500;BME280;49654;51.142;14.924;2023-02-22T00:24:59;99266.03;;;7.82;83.01
63500;BME280;49654;51.142;14.924;2023-02-22T00:27:26;99283.91;;;8.01;83.57
63500;BME280;49654;51.142;14.924;2023-02-22T00:29:53;99294.16;;;8.19;82.50
63500;BME280;49654;51.142;14.924;2023-02-22T00:32:21;99300.44;;;8.17;82.89
63500;BME280;49654;51.142;14.924;2023-02-22T00:34:51;99228.81;;;7.75;83.05
63500;BME280;49654;51.142;14.924;2023-02-22T00:37:20;99293.84;;;8.22;82.73
63500;BME280;49654;51.142;14.924;2023-02-22T00:39:47;99295.47;;;8.23;82.61
63500;BME280;49654;51.142;14.924;2023-02-22T00:42:15;99294.28;;;8.18;82.76
63500;BME280;49654;51.142;14.924;2023-02-22T00:44:42;99292.03;;;8.15;83.08
63500;BME280;49654;51.142;14.924;2023-02-22T00:47:09;99262.38;;;7.93;82.66
63500;BME280;49654;51.142;14.924;2023-02-22T00:49:37;99293.66;;;8.16;82.81
63500;BME280;49654;51.142;14.924;2023-02-22T00:52:04;99295.47;;;8.23;82.30
63500;BME280;49654;51.142;14.924;2023-02-22T00:54:33;99305.09;;;8.13;81.91
63500;BME280;49654;51.142;14.924;2023-02-22T00:57:01;99263.31;;;7.92;82.54
63500;BME280;49654;51.142;14.924;2023-02-22T00:59:28;99294.94;;;8.12;82.47
63500;BME280;49654;51.142;14.924;2023-02-22T01:01:56;99200.81;;;7.62;82.51
63500;BME280;49654;51.142;14.924;2023-02-22T01:04:23;99216.72;;;7.75;81.94
63500;BME280;49654;51.142;14.924;2023-02-22T01:06:50;99289.47;;;8.15;82.41
63500;BME280;49654;51.142;14.924;2023-02-22T01:09:19;99211.31;;;7.61;82.50
63500;BME280;49654;51.142;14.924;2023-02-22T01:11:51;99209.19;;;7.56;82.87
63500;BME280;49654;51.142;14.924;2023-02-22T01:14:20;99213.34;;;7.49;83.09
63500;BME280;49654;51.142;14.924;2023-02-22T01:16:48;99273.28;;;7.78;83.64
63500;BME280;49654;51.142;14.924;2023-02-22T01:19:16;99210.38;;;7.36;83.96
63500;BME280;49654;51.142;14.924;2023-02-22T01:21:43;99289.16;;;7.92;84.12
63500;BME280;49654;51.142;14.924;2023-02-22T01:24:12;99279.25;;;8.05;83.67
63500;BME280;49654;51.142;14.924;2023-02-22T01:26:41;99283.09;;;8.09;83.35
63500;BME280;49654;51.142;14.924;2023-02-22T01:29:11;99172.94;;;7.40;83.23
63500;BME280;49654;51.142;14.924;2023-02-22T01:31:40;99276.28;;;8.00;83.11
63500;BME280;49654;51.142;14.924;2023-02-22T01:34:08;99237.38;;;7.67;83.22
63500;BME280;49654;51.142;14.924;2023-02-22T01:36:35;99151.75;;;7.28;83.12
63500;BME280;49654;51.142;14.924;2023-02-22T01:39:02;99228.84;;;7.83;82.91
63500;BME280;49654;51.142;14.924;2023-02-22T01:41:29;99269.56;;;8.15;82.91
63500;BME280;49654;51.142;14.924;2023-02-22T01:43:56;99279.28;;;8.21;82.57
63500;BME280;49654;51.142;14.924;2023-02-22T01:46:26;99259.81;;;8.01;82.61
63500;BME280;49654;51.142;14.924;2023-02-22T01:48:57;99256.81;;;7.80;82.71
63500;BME280;49654;51.142;14.924;2023-02-22T01:51:28;99284.03;;;8.00;83.37
63500;BME280;49654;51.142;14.924;2023-02-22T01:54:01;99271.47;;;8.05;83.41
63500;BME280;49654;51.142;14.924;2023-02-22T01:57:02;99136.31;;;7.18;83.28
63500;BME280;49654;51.142;14.924;2023-02-22T01:59:34;99259.50;;;8.04;83.23
63500;BME280;49654;51.142;14.924;2023-02-22T02:02:04;99259.50;;;8.04;83.10
63500;BME280;49654;51.142;14.924;2023-02-22T02:04:32;99266.28;;;7.97;82.99
63500;BME280;49654;51.142;14.924;2023-02-22T02:07:03;99208.69;;;7.52;83.64
63500;BME280;49654;51.142;14.924;2023-02-22T02:09:35;99195.59;;;7.46;83.50
63500;BME280;49654;51.142;14.924;2023-02-22T02:12:06;99188.13;;;7.43;83.76
63500;BME280;49654;51.142;14.924;2023-02-22T02:14:34;99227.53;;;7.71;84.00
63500;BME280;49654;51.142;14.924;2023-02-22T02:17:07;99261.75;;;7.99;83.94
63500;BME280;49654;51.142;14.924;2023-02-22T02:19:42;99260.97;;;8.07;83.46
63500;BME280;49654;51.142;14.924;2023-02-22T02:22:29;99153.69;;;7.34;83.07
63500;BME280;49654;51.142;14.924;2023-02-22T02:25:12;99252.28;;;7.82;83.48
63500;BME280;49654;51.142;14.924;2023-02-22T02:28:01;99234.41;;;7.62;83.88
63500;BME280;49654;51.142;14.924;2023-02-22T02:30:42;99236.72;;;7.73;84.00
63500;BME280;49654;51.142;14.924;2023-02-22T02:33:18;99229.63;;;7.67;84.05
63500;BME280;49654;51.142;14.924;2023-02-22T02:35:50;99211.66;;;7.66;84.09
63500;BME280;49654;51.142;14.924;2023-02-22T02:38:30;99195.34;;;7.65;83.36
63500;BME280;49654;51.142;14.924;2023-02-22T02:41:05;99225.69;;;7.97;82.88
63500;BME280;49654;51.142;14.924;2023-02-22T02:43:39;99241.91;;;8.16;82.69
63500;BME280;49654;51.142;14.924;2023-02-22T02:46:11;99248.56;;;8.18;82.23
63500;BME280;49654;51.142;14.924;2023-02-22T02:48:44;99137.81;;;7.55;81.88
63500;BME280;49654;51.142;14.924;2023-02-22T02:51:16;99246.81;;;8.27;81.23
63500;BME280;49654;51.142;14.924;2023-02-22T02:53:45;99222.34;;;8.13;80.87
63500;BME280;49654;51.142;14.924;2023-02-22T02:56:16;99224.72;;;7.98;81.23
63500;BME280;49654;51.142;14.924;2023-02-22T02:58:45;99227.97;;;8.00;81.48
63500;BME280;49654;51.142;14.924;2023-02-22T03:01:19;99243.47;;;8.00;81.89
63500;BME280;49654;51.142;14.924;2023-02-22T03:04:00;99169.44;;;7.57;81.80
63500;BME280;49654;51.142;14.924;2023-02-22T03:06:55;99226.16;;;7.93;82.09
63500;BME280;49654;51.142;14.924;2023-02-22T03:09:37;99235.56;;;8.02;81.84
63500;BME280;49654;51.142;14.924;2023-02-22T03:12:16;99202.16;;;7.74;82.04
63500;BME280;49654;51.142;14.924;2023-02-22T03:14:52;99212.50;;;7.74;82.37
63500;BME280;49654;51.142;14.924;2023-02-22T03:17:33;99197.88;;;7.57;83.17
63500;BME280;49654;51.142;14.924;2023-02-22T03:20:10;99240.38;;;7.89;82.61
63500;BME280;49654;51.142;14.924;2023-02-22T03:22:41;99255.50;;;8.10;82.62
63500;BME280;49654;51.142;14.924;2023-02-22T03:25:16;99238.97;;;8.02;82.22
63500;BME280;49654;51.142;14.924;2023-02-22T03:27:48;99260.66;;;8.10;82.42
63500;BME280;49654;51.142;14.924;2023-02-22T03:30:21;99209.56;;;7.69;83.02
63500;BME280;49654;51.142;14.924;2023-02-22T03:32:54;99254.00;;;8.07;82.60
63500;BME280;49654;51.142;14.924;2023-02-22T03:35:28;99181.47;;;7.74;81.44
63500;BME280;49654;51.142;14.924;2023-02-22T03:37:59;99135.81;;;7.49;81.07
63500;BME280;49654;51.142;14.924;2023-02-22T03:40:30;99180.81;;;7.64;81.19
63500;BME280;49654;51.142;14.924;2023-02-22T03:43:01;99231.31;;;7.85;82.09
63500;BME280;49654;51.142;14.924;2023-02-22T03:45:32;99243.03;;;8.13;81.31
63500;BME280;49654;51.142;14.924;2023-02-22T03:48:02;99212.28;;;7.94;80.85
63500;BME280;49654;51.142;14.924;2023-02-22T03:50:35;99263.50;;;7.98;81.18
63500;BME280;49654;51.142;14.924;2023-02-22T03:53:03;99232.19;;;7.67;82.45
63500;BME280;49654;51.142;14.924;2023-02-22T03:55:32;99257.50;;;7.90;83.31
63500;BME280;49654;51.142;14.924;2023-02-22T03:58:04;99196.56;;;7.53;83.19
63500;BME280;49654;51.142;14.924;2023-02-22T04:00:33;99180.09;;;7.46;82.88
63500;BME280;49654;51.142;14.924;2023-02-22T04:03:01;99250.72;;;7.89;83.00
63500;BME280;49654;51.142;14.924;2023-02-22T04:05:29;99181.00;;;7.37;83.00
63500;BME280;49654;51.142;14.924;2023-02-22T04:07:57;99254.91;;;7.90;83.15
63500;BME280;49654;51.142;14.924;2023-02-22T04:10:24;99186.88;;;7.47;83.39
63500;BME280;49654;51.142;14.924;2023-02-22T04:12:51;99248.25;;;7.87;82.63
63500;BME280;49654;51.142;14.924;2023-02-22T04:15:20;99241.44;;;7.78;83.22
63500;BME280;49654;51.142;14.924;2023-02-22T04:17:47;99138.38;;;7.07;83.50
63500;BME280;49654;51.142;14.924;2023-02-22T04:20:15;99252.50;;;7.88;83.76
63500;BME280;49654;51.142;14.924;2023-02-22T04:22:44;99215.28;;;7.81;83.18
63500;BME280;49654;51.142;14.924;2023-02-22T04:25:13;99256.44;;;8.09;82.26
63500;BME280;49654;51.142;14.924;2023-02-22T04:27:40;99192.16;;;7.71;81.93
63500;BME280;49654;51.142;14.924;2023-02-22T04:30:08;99135.06;;;7.22;81.26
63500;BME280;49654;51.142;14.924;2023-02-22T04:32:36;99232.00;;;7.61;81.85
63500;BME280;49654;51.142;14.924;2023-02-22T04:35:03;99250.50;;;7.82;82.81
63500;BME280;49654;51.142;14.924;2023-02-22T04:37:30;99223.66;;;7.75;82.76
63500;BME280;49654;51.142;14.924;2023-02-22T04:40:00;99248.72;;;7.83;82.40
63500;BME280;49654;51.142;14.924;2023-02-22T04:42:28;99196.38;;;7.46;83.49
63500;BME280;49654;51.142;14.924;2023-02-22T04:44:55;99218.94;;;7.70;83.16
63500;BME280;49654;51.142;14.924;2023-02-22T04:47:22;99218.94;;;7.70;83.11
63500;BME280;49654;51.142;14.924;2023-02-22T04:49:58;99238.38;;;7.83;83.39
63500;BME280;49654;51.142;14.924;2023-02-22T04:52:26;99174.25;;;7.44;83.66
63500;BME280;49654;51.142;14.924;2023-02-22T04:54:53;99239.06;;;7.85;83.69
63500;BME280;49654;51.142;14.924;2023-02-22T04:57:20;99216.66;;;7.59;83.22
63500;BME280;49654;51.142;14.924;2023-02-22T04:59:48;99179.72;;;7.41;83.81
63500;BME280;49654;51.142;14.924;2023-02-22T05:02:16;99172.28;;;7.38;83.68
63500;BME280;49654;51.142;14.924;2023-02-22T05:04:43;99229.81;;;7.82;83.89
63500;BME280;49654;51.142;14.924;2023-02-22T05:07:10;99226.63;;;7.88;83.59
63500;BME280;49654;51.142;14.924;2023-02-22T05:09:37;99227.41;;;7.81;83.78
63500;BME280;49654;51.142;14.924;2023-02-22T05:12:05;99179.78;;;7.57;84.04
63500;BME280;49654;51.142;14.924;2023-02-22T05:14:32;99218.31;;;7.68;83.73
63500;BME280;49654;51.142;14.924;2023-02-22T05:17:00;99211.84;;;7.72;83.80
63500;BME280;49654;51.142;14.924;2023-02-22T05:19:27;99169.06;;;7.44;83.60
63500;BME280;49654;51.142;14.924;2023-02-22T05:21:54;99216.56;;;7.77;83.43
63500;BME280;49654;51.142;14.924;2023-02-22T05:24:22;99208.81;;;7.77;83.89
63500;BME280;49654;51.142;14.924;2023-02-22T05:26:49;99226.28;;;7.83;83.79
63500;BME280;49654;51.142;14.924;2023-02-22T05:29:18;99231.94;;;7.87;83.76
63500;BME280;49654;51.142;14.924;2023-02-22T05:31:45;99191.59;;;7.60;83.63
63500;BME280;49654;51.142;14.924;2023-02-22T05:34:14;99214.31;;;7.82;83.84
63500;BME280;49654;51.142;14.924;2023-02-22T05:36:41;99200.84;;;7.70;83.58
63500;BME280;49654;51.142;14.924;2023-02-22T05:39:08;99162.91;;;7.37;83.93
63500;BME280;49654;51.142;14.924;2023-02-22T05:41:35;99193.53;;;7.58;83.87
63500;BME280;49654;51.142;14.924;2023-02-22T05:44:02;99231.38;;;7.67;84.13
63500;BME280;49654;51.142;14.924;2023-02-22T05:46:29;99206.59;;;7.56;84.73
63500;BME280;49654;51.142;14.924;2023-02-22T05:48:56;99149.34;;;7.35;84.47
63500;BME280;49654;51.142;14.924;2023-02-22T05:51:25;99213.44;;;7.65;84.10
63500;BME280;49654;51.142;14.924;2023-02-22T05:53:52;99111.59;;;7.08;83.79
63500;BME280;49654;51.142;14.924;2023-02-22T05:56:20;99234.31;;;7.72;83.89
63500;BME280;49654;51.142;14.924;2023-02-22T05:58:47;99230.50;;;7.50;84.38
63500;BME280;49654;51.142;14.924;2023-02-22T06:01:14;99210.16;;;7.55;84.76
63500;BME280;49654;51.142;14.924;2023-02-22T06:03:41;99213.72;;;7.62;84.59
63500;BME280;49654;51.142;14.924;2023-02-22T06:06:08;99200.41;;;7.83;83.39
63500;BME280;49654;51.142;14.924;2023-02-22T06:08:37;99192.44;;;7.68;83.33
63500;BME280;49654;51.142;14.924;2023-02-22T06:11:04;99216.88;;;7.74;82.99
63500;BME280;49654;51.142;14.924;2023-02-22T06:13:31;99216.69;;;7.67;83.67
63500;BME280;49654;51.142;14.924;2023-02-22T06:15:58;99222.06;;;7.82;83.47
63500;BME280;49654;51.142;14.924;2023-02-22T06:18:25;99178.47;;;7.53;83.23
63500;BME280;49654;51.142;14.924;2023-02-22T06:20:55;99221.00;;;7.93;83.13
63500;BME280;49654;51.142;14.924;2023-02-22T06:23:22;99221.44;;;7.80;83.51
63500;BME280;49654;51.142;14.924;2023-02-22T06:25:51;99247.41;;;7.78;83.40
63500;BME280;49654;51.142;14.924;2023-02-22T06:28:18;99236.28;;;7.78;84.40
63500;BME280;49654;51.142;14.924;2023-02-22T06:30:45;99229.69;;;7.92;84.08
63500;BME280;49654;51.142;14.924;2023-02-22T06:33:12;99215.19;;;7.99;83.42
63500;BME280;49654;51.142;14.924;2023-02-22T06:35:39;99244.69;;;8.14;82.63
63500;BME280;49654;51.142;14.924;2023-02-22T06:38:06;99244.50;;;7.73;83.46
63500;BME280;49654;51.142;14.924;2023-02-22T06:40:33;99187.88;;;7.62;83.87
63500;BME280;49654;51.142;14.924;2023-02-22T06:43:03;99225.38;;;8.00;83.12
63500;BME280;49654;51.142;14.924;2023-02-22T06:45:30;99256.94;;;8.12;83.23
63500;BME280;49654;51.142;14.924;2023-02-22T06:47:56;99217.25;;;7.87;83.91
63500;BME280;49654;51.142;14.924;2023-02-22T06:50:26;99209.00;;;7.92;83.48
63500;BME280;49654;51.142;14.924;2023-02-22T06:52:54;99215.19;;;7.99;83.35
63500;BME280;49654;51.142;14.924;2023-02-22T06:55:23;99191.22;;;7.81;83.43
63500;BME280;49654;51.142;14.924;2023-02-22T06:57:51;99260.16;;;8.40;82.96
63500;BME280;49654;51.142;14.924;2023-02-22T07:00:21;99189.97;;;7.93;82.01
63500;BME280;49654;51.142;14.924;2023-02-22T07:02:49;99239.94;;;8.01;82.55
63500;BME280;49654;51.142;14.924;2023-02-22T07:05:19;99269.41;;;8.17;83.58
63500;BME280;49654;51.142;14.924;2023-02-22T07:07:47;99252.81;;;8.36;83.04
63500;BME280;49654;51.142;14.924;2023-02-22T07:10:18;99185.78;;;8.00;82.93
63500;BME280;49654;51.142;14.924;2023-02-22T07:12:46;99265.34;;;8.65;82.50
63500;BME280;49654;51.142;14.924;2023-02-22T07:15:13;99239.31;;;8.66;81.62
63500;BME280;49654;51.142;14.924;2023-02-22T07:17:41;99273.00;;;8.91;81.63
63500;BME280;49654;51.142;14.924;2023-02-22T07:20:09;99223.13;;;8.72;80.92
63500;BME280;49654;51.142;14.924;2023-02-22T07:22:36;99208.88;;;8.44;81.09
63500;BME280;49654;51.142;14.924;2023-02-22T07:25:05;99221.34;;;8.57;81.34
63500;BME280;49654;51.142;14.924;2023-02-22T07:27:35;99270.59;;;9.22;78.55
63500;BME280;49654;51.142;14.924;2023-02-22T07:30:03;99248.88;;;8.98;79.12
63500;BME280;49654;51.142;14.924;2023-02-22T07:32:30;99207.78;;;8.71;79.31
63500;BME280;49654;51.142;14.924;2023-02-22T07:34:58;99155.78;;;8.23;79.33
63500;BME280;49654;51.142;14.924;2023-02-22T07:37:27;99243.53;;;8.75;79.83
63500;BME280;49654;51.142;14.924;2023-02-22T07:39:54;99256.81;;;9.13;79.36
63500;BME280;49654;51.142;14.924;2023-02-22T07:42:21;99273.00;;;9.40;78.27
63500;BME280;49654;51.142;14.924;2023-02-22T07:44:48;99246.13;;;9.08;77.09
63500;BME280;49654;51.142;14.924;2023-02-22T07:47:15;99268.63;;;9.08;78.19
63500;BME280;49654;51.142;14.924;2023-02-22T07:49:42;99248.25;;;9.21;78.24
63500;BME280;49654;51.142;14.924;2023-02-22T07:52:10;99222.66;;;9.18;77.51
63500;BME280;49654;51.142;14.924;2023-02-22T07:54:38;99261.91;;;9.70;77.03
63500;BME280;49654;51.142;14.924;2023-02-22T07:57:05;99272.59;;;9.75;76.28
63500;BME280;49654;51.142;14.924;2023-02-22T07:59:32;99255.16;;;9.28;75.26
63500;BME280;49654;51.142;14.924;2023-02-22T08:01:59;99220.06;;;9.26;77.10
63500;BME280;49654;51.142;14.924;2023-02-22T08:04:26;99272.59;;;9.75;77.24
63500;BME280;49654;51.142;14.924;2023-02-22T08:06:53;99203.28;;;9.53;76.80
63500;BME280;49654;51.142;14.924;2023-02-22T08:09:21;99245.13;;;9.97;76.04
63500;BME280;49654;51.142;14.924;2023-02-22T08:11:48;99189.13;;;9.72;75.72
63500;BME280;49654;51.142;14.924;2023-02-22T08:14:15;99216.34;;;9.76;74.92
63500;BME280;49654;51.142;14.924;2023-02-22T08:16:42;99254.94;;;10.10;75.43
63500;BME280;49654;51.142;14.924;2023-02-22T08:19:09;99264.97;;;10.30;75.32
63500;BME280;49654;51.142;14.924;2023-02-22T08:21:36;99270.69;;;10.48;74.21
63500;BME280;49654;51.142;14.924;2023-02-22T08:24:04;99261.59;;;10.52;73.35
63500;BME280;49654;51.142;14.924;2023-02-22T08:26:32;99245.50;;;10.25;72.60
63500;BME280;49654;51.142;14.924;2023-02-22T08:28:59;99262.91;;;10.48;73.23
63500;BME280;49654;51.142;14.924;2023-02-22T08:31:26;99241.31;;;10.16;72.37
63500;BME280;49654;51.142;14.924;2023-02-22T08:33:53;99272.91;;;10.59;72.18
63500;BME280;49654;51.142;14.924;2023-02-22T08:36:20;99244.00;;;10.62;71.26
63500;BME280;49654;51.142;14.924;2023-02-22T08:38:47;99254.97;;;10.72;69.71
63500;BME280;49654;51.142;14.924;2023-02-22T08:41:14;99260.03;;;10.43;69.11
63500;BME280;49654;51.142;14.924;2023-02-22T08:43:43;99220.25;;;10.11;70.29
63500;BME280;49654;51.142;14.924;2023-02-22T08:46:09;99257.47;;;10.58;70.08
63500;BME280;49654;51.142;14.924;2023-02-22T08:48:36;99233.91;;;10.36;69.29
63500;BME280;49654;51.142;14.924;2023-02-22T08:51:04;99203.00;;;10.26;68.76
63500;BME280;49654;51.142;14.924;2023-02-22T08:53:31;99252.91;;;10.68;68.96
63500;BME280;49654;51.142;14.924;2023-02-22T08:55:58;99251.09;;;10.68;69.57
63500;BME280;49654;51.142;14.924;2023-02-22T08:58:25;99275.09;;;10.70;68.47
63500;BME280;49654;51.142;14.924;2023-02-22T09:00:53;99260.72;;;10.83;69.66
63500;BME280;49654;51.142;14.924;2023-02-22T09:03:20;99249.38;;;10.84;69.46
63500;BME280;49654;51.142;14.924;2023-02-22T09:05:47;99253.03;;;11.12;68.31
63500;BME280;49654;51.142;14.924;2023-02-22T09:08:15;99271.28;;;11.42;68.68
63500;BME280;49654;51.142;14.924;2023-02-22T09:10:42;99271.09;;;11.43;68.50
63500;BME280;49654;51.142;14.924;2023-02-22T09:13:10;99212.09;;;11.14;69.11
63500;BME280;49654;51.142;14.924;2023-02-22T09:15:38;99272.41;;;11.62;68.63
63500;BME280;49654;51.142;14.924;2023-02-22T09:18:09;99278.78;;;11.74;68.98
63500;BME280;49654;51.142;14.924;2023-02-22T09:20:37;99264.44;;;11.78;66.89
63500;BME280;49654;51.142;14.924;2023-02-22T09:23:04;99250.72;;;11.70;65.94
63500;BME280;49654;51.142;14.924;2023-02-22T09:25:32;99261.19;;;11.62;66.46
63500;BME280;49654;51.142;14.924;2023-02-22T09:28:00;99253.09;;;11.42;66.12
63500;BME280;49654;51.142;14.924;2023-02-22T09:30:30;99265.41;;;11.77;67.04
63500;BME280;49654;51.142;14.924;2023-02-22T09:32:59;99245.56;;;11.76;66.97
63500;BME280;49654;51.142;14.924;2023-02-22T09:35:27;99256.25;;;11.67;66.25
63500;BME280;49654;51.142;14.924;2023-02-22T09:37:55;99255.03;;;11.92;66.62
63500;BME280;49654;51.142;14.924;2023-02-22T09:40:23;99248.91;;;11.85;66.40
63500;BME280;49654;51.142;14.924;2023-02-22T09:43:08;99268.78;;;11.86;67.52
63500;BME280;49654;51.142;14.924;2023-02-22T09:45:50;99260.91;;;12.31;66.71
63500;BME280;49654;51.142;14.924;2023-02-22T09:48:20;99226.66;;;12.12;66.66
63500;BME280;49654;51.142;14.924;2023-02-22T09:50:52;99266.41;;;12.21;66.71
63500;BME280;49654;51.142;14.924;2023-02-22T09:53:27;99261.91;;;12.30;66.45
63500;BME280;49654;51.142;14.924;2023-02-22T09:56:00;99264.00;;;12.41;66.87
63500;BME280;49654;51.142;14.924;2023-02-22T09:58:32;99191.47;;;12.16;65.51
63500;BME280;49654;51.142;14.924;2023-02-22T10:01:17;99231.69;;;12.35;64.70
63500;BME280;49654;51.142;14.924;2023-02-22T10:03:52;99258.09;;;12.68;66.03
63500;BME280;49654;51.142;14.924;2023-02-22T10:06:23;99234.66;;;12.90;64.83
63500;BME280;49654;51.142;14.924;2023-02-22T10:08:53;99214.28;;;13.00;63.87
63500;BME280;49654;51.142;14.924;2023-02-22T10:11:33;99202.25;;;13.06;63.20
63500;BME280;49654;51.142;14.924;2023-02-22T10:14:09;99244.09;;;13.19;62.56
63500;BME280;49654;51.142;14.924;2023-02-22T10:16:47;99191.75;;;12.92;61.27
63500;BME280;49654;51.142;14.924;2023-02-22T10:19:24;99241.22;;;13.35;62.48
63500;BME280;49654;51.142;14.924;2023-02-22T10:22:12;99211.78;;;12.92;61.16
63500;BME280;49654;51.142;14.924;2023-02-22T10:24:52;99240.19;;;13.30;62.18
63500;BME280;49654;51.142;14.924;2023-02-22T10:27:24;99244.03;;;13.12;60.17
63500;BME280;49654;51.142;14.924;2023-02-22T10:29:59;99234.75;;;13.03;61.10
63500;BME280;49654;51.142;14.924;2023-02-22T10:32:33;99210.19;;;12.91;61.84
63500;BME280;49654;51.142;14.924;2023-02-22T10:35:05;99242.06;;;12.71;60.77
63500;BME280;49654;51.142;14.924;2023-02-22T10:37:40;99236.63;;;12.88;61.22
63500;BME280;49654;51.142;14.924;2023-02-22T10:40:11;99231.28;;;12.74;60.58
63500;BME280;49654;51.142;14.924;2023-02-22T10:42:42;99218.91;;;12.76;61.33
63500;BME280;49654;51.142;14.924;2023-02-22T10:45:18;99216.28;;;12.98;60.40
63500;BME280;49654;51.142;14.924;2023-02-22T10:47:48;99230.28;;;12.97;60.75
63500;BME280;49654;51.142;14.924;2023-02-22T10:50:15;99230.81;;;12.64;61.57
63500;BME280;49654;51.142;14.924;2023-02-22T10:52:43;99231.59;;;12.65;61.67
63500;BME280;49654;51.142;14.924;2023-02-22T10:55:12;99212.13;;;12.82;62.32
63500;BME280;49654;51.142;14.924;2023-02-22T10:57:40;99205.34;;;12.88;61.76
63500;BME280;49654;51.142;14.924;2023-02-22T11:00:17;99226.50;;;12.99;61.95
63500;BME280;49654;51.142;14.924;2023-02-22T11:02:53;99221.44;;;13.19;62.02
63500;BME280;49654;51.142;14.924;2023-02-22T11:05:29;99235.44;;;13.40;62.39
63500;BME280;49654;51.142;14.924;2023-02-22T11:08:15;99232.00;;;13.33;61.65
63500;BME280;49654;51.142;14.924;2023-02-22T11:10:42;99225.66;;;13.20;60.58
63500;BME280;49654;51.142;14.924;2023-02-22T11:13:16;99226.72;;;13.26;62.31
63500;BME280;49654;51.142;14.924;2023-02-22T11:15:44;99217.72;;;13.28;61.82
63500;BME280;49654;51.142;14.924;2023-02-22T11:18:22;99203.97;;;12.92;61.94
63500;BME280;49654;51.142;14.924;2023-02-22T11:20:58;99212.91;;;13.04;59.40
63500;BME280;49654;51.142;14.924;2023-02-22T11:23:27;99160.19;;;12.81;61.00
63500;BME280;49654;51.142;14.924;2023-02-22T11:26:06;99190.97;;;13.20;60.86
63500;BME280;49654;51.142;14.924;2023-02-22T11:28:35;99198.63;;;13.56;60.88
63500;BME280;49654;51.142;14.924;2023-02-22T11:31:12;99213.63;;;13.89;60.72
63500;BME280;49654;51.142;14.924;2023-02-22T11:33:46;99196.16;;;13.89;60.00
63500;BME280;49654;51.142;14.924;2023-02-22T11:36:31;99212.84;;;13.88;57.67
63500;BME280;49654;51.142;14.924;2023-02-22T11:38:59;99209.06;;;13.56;58.84
63500;BME280;49654;51.142;14.924;2023-02-22T11:41:32;99215.53;;;12.83;59.36
63500;BME280;49654;51.142;14.924;2023-02-22T11:44:12;99210.91;;;12.85;60.97
63500;BME280;49654;51.142;14.924;2023-02-22T11:46:40;99192.03;;;13.04;61.69
63500;BME280;49654;51.142;14.924;2023-02-22T11:49:10;99203.47;;;13.24;61.17
63500;BME280;49654;51.142;14.924;2023-02-22T11:51:47;99203.47;;;13.03;60.83
63500;BME280;49654;51.142;14.924;2023-02-22T11:57:14;99208.47;;;13.26;61.21
63500;BME280;49654;51.142;14.924;2023-02-22T11:59:53;99194.63;;;13.60;60.76
63500;BME280;49654;51.142;14.924;2023-02-22T12:02:42;99197.38;;;13.45;58.81
63500;BME280;49654;51.142;14.924;2023-02-22T12:05:22;99202.06;;;13.28;60.04
63500;BME280;49654;51.142;14.924;2023-02-22T12:08:01;99190.28;;;13.11;60.60
63500;BME280;49654;51.142;14.924;2023-02-22T12:10:46;99199.44;;;13.00;59.90
63500;BME280;49654;51.142;14.924;2023-02-22T12:13:24;99202.47;;;13.04;61.10
63500;BME280;49654;51.142;14.924;2023-02-22T12:16:01;99192.75;;;13.19;61.09
63500;BME280;49654;51.142;14.924;2023-02-22T12:18:35;99185.94;;;13.46;60.79
63500;BME280;49654;51.142;14.924;2023-02-22T12:21:06;99136.31;;;13.33;61.02
63500;BME280;49654;51.142;14.924;2023-02-22T12:23:40;99187.88;;;13.72;59.97
63500;BME280;49654;51.142;14.924;2023-02-22T12:26:15;99176.63;;;13.72;59.61
63500;BME280;49654;51.142;14.924;2023-02-22T12:28:46;99171.25;;;13.87;60.03
63500;BME280;49654;51.142;14.924;2023-02-22T12:31:18;99181.72;;;14.00;60.41
63500;BME280;49654;51.142;14.924;2023-02-22T12:33:52;99172.31;;;13.51;59.68
63500;BME280;49654;51.142;14.924;2023-02-22T12:36:27;99185.84;;;13.33;59.75
63500;BME280;49654;51.142;14.924;2023-02-22T12:38:59;99165.25;;;13.45;60.91
63500;BME280;49654;51.142;14.924;2023-02-22T12:41:34;99185.06;;;13.33;59.79
63500;BME280;49654;51.142;14.924;2023-02-22T12:44:06;99181.06;;;13.37;60.68
63500;BME280;49654;51.142;14.924;2023-02-22T12:46:37;99179.44;;;13.36;61.23
63500;BME280;49654;51.142;14.924;2023-02-22T12:49:11;99170.13;;;13.55;61.03
63500;BME280;49654;51.142;14.924;2023-02-22T12:51:46;99173.00;;;13.73;59.95
63500;BME280;49654;51.142;14.924;2023-02-22T12:54:20;99156.34;;;13.74;60.19
63500;BME280;49654;51.142;14.924;2023-02-22T12:56:53;99174.94;;;14.06;59.89
63500;BME280;49654;51.142;14.924;2023-02-22T12:59:25;99154.25;;;14.11;58.47
63500;BME280;49654;51.142;14.924;2023-02-22T13:01:58;99168.09;;;14.04;58.29
63500;BME280;49654;51.142;14.924;2023-02-22T13:04:27;99171.59;;;14.32;58.27
63500;BME280;49654;51.142;14.924;2023-02-22T13:07:04;99168.00;;;14.39;57.34
63500;BME280;49654;51.142;14.924;2023-02-22T13:09:58;99165.16;;;14.34;57.56
63500;BME280;49654;51.142;14.924;2023-02-22T13:12:37;99163.13;;;14.23;55.88
63500;BME280;49654;51.142;14.924;2023-02-22T13:15:13;99140.28;;;14.58;56.94
63500;BME280;49654;51.142;14.924;2023-02-22T13:17:50;99156.53;;;15.20;55.64